createdAt,value
2019-03-03T00:00:48.819Z,0.00
2019-03-03T00:01:48.829Z,0.00
2019-03-03T00:02:48.796Z,0.00
2019-03-03T00:03:48.787Z,0.00
2019-03-03T00:04:48.775Z,0.00
2019-03-03T00:05:48.781Z,0.00
2019-03-03T00:06:48.755Z,0.00
2019-03-03T00:07:48.744Z,0.00
2019-03-03T00:08:48.735Z,0.00
2019-03-03T00:09:48.723Z,0.00
2019-03-03T00:10:48.737Z,0.00
2019-03-03T00:11:48.724Z,0.00
2019-03-03T00:12:48.715Z,0.00
2019-03-03T00:13:48.695Z,0.00
2019-03-03T00:14:48.664Z,0.00
2019-03-03T00:15:48.670Z,0.00
2019-03-03T00:16:48.644Z,0.00
2019-03-03T00:17:48.651Z,0.00
2019-03-03T00:18:48.636Z,0.00
2019-03-03T00:19:48.645Z,0.00
2019-03-03T00:20:48.602Z,0.00
2019-03-03T00:21:48.600Z,0.00
2019-03-03T00:22:48.587Z,0.00
2019-03-03T00:23:48.603Z,0.00
2019-03-03T00:24:48.573Z,0.00
2019-03-03T00:25:48.552Z,0.00
2019-03-03T00:26:48.545Z,0.00
2019-03-03T00:27:48.528Z,0.00
2019-03-03T00:28:48.516Z,0.00
2019-03-03T00:29:48.526Z,0.00
2019-03-03T00:30:48.493Z,0.00
2019-03-03T00:31:48.486Z,0.00
2019-03-03T00:32:48.477Z,0.00
2019-03-03T00:33:48.461Z,0.00
2019-03-03T00:34:48.460Z,0.00
2019-03-03T00:35:48.464Z,0.00
2019-03-03T00:36:48.432Z,0.00
2019-03-03T00:37:48.420Z,0.00
2019-03-03T00:38:48.422Z,0.00
2019-03-03T00:39:48.434Z,0.00
2019-03-03T00:40:48.387Z,0.00
2019-03-03T00:41:48.397Z,0.00
2019-03-03T00:42:48.369Z,0.00
2019-03-03T00:43:48.365Z,0.00
2019-03-03T00:44:48.345Z,0.00
2019-03-03T00:45:48.342Z,0.00
2019-03-03T00:46:48.326Z,0.00
2019-03-03T00:47:48.331Z,0.00
2019-03-03T00:48:48.310Z,0.00
2019-03-03T00:49:48.287Z,0.00
2019-03-03T00:50:48.281Z,0.00
2019-03-03T00:51:48.278Z,0.00
2019-03-03T00:52:48.268Z,0.00
2019-03-03T00:53:48.285Z,0.00
2019-03-03T00:54:48.240Z,0.00
2019-03-03T00:55:48.233Z,0.00
2019-03-03T00:56:48.216Z,0.00
2019-03-03T00:57:48.207Z,0.00
2019-03-03T00:58:48.195Z,0.00
2019-03-03T00:59:48.203Z,0.00
2019-03-03T01:00:48.172Z,0.00
2019-03-03T01:01:48.166Z,0.00
2019-03-03T01:02:48.172Z,0.00
2019-03-03T01:03:48.139Z,0.00
2019-03-03T01:04:48.130Z,0.00
2019-03-03T01:05:48.143Z,0.00
2019-03-03T01:06:48.139Z,0.00
2019-03-03T01:07:48.101Z,0.00
2019-03-03T01:08:48.088Z,0.00
2019-03-03T01:09:48.075Z,0.00
2019-03-03T01:10:48.066Z,0.00
2019-03-03T01:11:48.079Z,0.00
2019-03-03T01:12:48.040Z,0.00
2019-03-03T01:13:48.044Z,0.00
2019-03-03T01:14:48.033Z,0.00
2019-03-03T01:15:48.014Z,0.00
2019-03-03T01:16:48.005Z,0.00
2019-03-03T01:17:48.012Z,0.00
2019-03-03T01:18:47.992Z,0.00
2019-03-03T01:19:47.970Z,0.00
2019-03-03T01:20:47.960Z,0.00
2019-03-03T01:21:47.967Z,0.00
2019-03-03T01:22:47.943Z,0.00
2019-03-03T01:23:47.995Z,0.00
2019-03-03T01:24:47.921Z,0.00
2019-03-03T01:25:47.906Z,0.00
2019-03-03T01:26:47.896Z,0.00
2019-03-03T01:27:47.909Z,0.00
2019-03-03T01:28:47.877Z,0.00
2019-03-03T01:29:47.891Z,0.00
2019-03-03T01:30:47.852Z,0.00
2019-03-03T01:31:47.838Z,0.00
2019-03-03T01:32:47.851Z,0.00
2019-03-03T01:33:47.829Z,0.00
2019-03-03T01:34:47.809Z,0.00
2019-03-03T01:35:47.819Z,0.00
2019-03-03T01:36:47.789Z,0.00
2019-03-03T01:37:47.774Z,0.00
2019-03-03T01:38:47.768Z,0.00
2019-03-03T01:39:47.757Z,0.00
2019-03-03T01:40:47.768Z,0.00
2019-03-03T01:41:47.753Z,0.00
2019-03-03T01:42:47.732Z,0.00
2019-03-03T01:43:47.715Z,0.00
2019-03-03T01:44:47.702Z,0.00
2019-03-03T01:45:47.702Z,0.00
2019-03-03T01:46:47.683Z,0.00
2019-03-03T01:47:47.693Z,0.00
2019-03-03T01:48:47.668Z,0.00
2019-03-03T01:49:47.654Z,0.00
2019-03-03T01:50:47.654Z,0.00
2019-03-03T01:51:47.651Z,0.00
2019-03-03T01:52:47.619Z,0.00
2019-03-03T01:53:47.625Z,0.00
2019-03-03T01:54:47.606Z,0.00
2019-03-03T01:55:47.595Z,0.00
2019-03-03T01:56:47.584Z,0.00
2019-03-03T01:57:47.587Z,0.00
2019-03-03T01:58:47.562Z,0.00
2019-03-03T01:59:47.564Z,0.00
2019-03-03T02:00:47.537Z,0.00
2019-03-03T02:01:47.523Z,0.00
2019-03-03T02:02:47.518Z,0.00
2019-03-03T02:03:47.632Z,0.00
2019-03-03T02:04:47.495Z,0.00
2019-03-03T02:05:47.502Z,0.00
2019-03-03T02:06:47.476Z,0.00
2019-03-03T02:07:47.461Z,0.00
2019-03-03T02:08:47.453Z,0.00
2019-03-03T02:09:47.459Z,0.00
2019-03-03T02:10:47.431Z,0.00
2019-03-03T02:11:47.449Z,0.00
2019-03-03T02:12:47.408Z,0.00
2019-03-03T02:13:47.421Z,0.00
2019-03-03T02:14:47.392Z,0.00
2019-03-03T02:15:47.393Z,0.00
2019-03-03T02:16:47.370Z,0.00
2019-03-03T02:17:47.373Z,0.00
2019-03-03T02:18:47.351Z,0.00
2019-03-03T02:19:47.348Z,0.00
2019-03-03T02:20:47.320Z,0.00
2019-03-03T02:22:38.200Z,0.00
2019-03-03T02:23:38.206Z,0.00
2019-03-03T02:24:38.180Z,0.00
2019-03-03T02:25:38.171Z,0.00
2019-03-03T02:26:38.158Z,0.00
2019-03-03T02:27:38.146Z,0.00
2019-03-03T02:28:38.137Z,0.00
2019-03-03T02:29:38.141Z,0.00
2019-03-03T02:30:38.119Z,0.00
2019-03-03T02:31:38.109Z,0.00
2019-03-03T02:32:38.098Z,0.00
2019-03-03T02:33:38.087Z,0.00
2019-03-03T02:34:38.076Z,0.00
2019-03-03T02:35:38.080Z,0.00
2019-03-03T02:36:38.052Z,0.00
2019-03-03T02:37:38.042Z,0.00
2019-03-03T02:38:38.030Z,0.00
2019-03-03T02:39:38.024Z,0.00
2019-03-03T02:40:38.013Z,0.00
2019-03-03T02:41:38.008Z,0.00
2019-03-03T02:42:37.989Z,0.00
2019-03-03T02:43:37.978Z,0.00
2019-03-03T02:44:37.965Z,0.00
2019-03-03T02:45:37.954Z,0.00
2019-03-03T02:46:37.946Z,0.00
2019-03-03T02:47:37.963Z,0.00
2019-03-03T02:48:37.923Z,0.00
2019-03-03T02:49:37.911Z,0.00
2019-03-03T02:50:37.898Z,0.00
2019-03-03T02:51:37.894Z,0.00
2019-03-03T02:52:37.880Z,0.00
2019-03-03T02:53:37.885Z,0.00
2019-03-03T02:54:37.856Z,0.00
2019-03-03T02:55:37.843Z,0.00
2019-03-03T02:56:37.835Z,0.00
2019-03-03T02:57:37.822Z,0.00
2019-03-03T02:58:37.812Z,0.00
2019-03-03T02:59:37.843Z,0.00
2019-03-03T03:00:37.788Z,0.00
2019-03-03T03:01:37.786Z,0.00
2019-03-03T03:02:37.777Z,0.00
2019-03-03T03:03:37.762Z,0.00
2019-03-03T03:04:37.750Z,0.00
2019-03-03T03:05:37.751Z,0.00
2019-03-03T03:06:37.739Z,0.00
2019-03-03T03:07:37.716Z,0.00
2019-03-03T03:08:37.703Z,0.00
2019-03-03T03:09:37.693Z,0.00
2019-03-03T03:10:37.681Z,0.00
2019-03-03T03:11:37.703Z,0.00
2019-03-03T03:12:37.661Z,0.00
2019-03-03T03:13:37.650Z,0.00
2019-03-03T03:14:37.640Z,0.00
2019-03-03T03:15:40.390Z,0.00
2019-03-03T03:16:37.623Z,0.00
2019-03-03T03:17:37.624Z,0.00
2019-03-03T03:18:37.601Z,0.00
2019-03-03T03:19:37.593Z,0.00
2019-03-03T03:20:37.579Z,0.00
2019-03-03T03:21:37.565Z,0.00
2019-03-03T03:22:37.557Z,0.00
2019-03-03T03:23:37.573Z,0.00
2019-03-03T03:24:37.533Z,0.00
2019-03-03T03:25:37.533Z,0.00
2019-03-03T03:26:37.515Z,0.00
2019-03-03T03:27:37.501Z,0.00
2019-03-03T03:28:37.491Z,0.00
2019-03-03T03:29:37.498Z,0.00
2019-03-03T03:30:37.470Z,0.00
2019-03-03T03:31:37.458Z,0.00
2019-03-03T03:32:37.452Z,0.00
2019-03-03T03:33:37.442Z,0.00
2019-03-03T03:34:37.431Z,0.00
2019-03-03T03:35:37.433Z,0.00
2019-03-03T03:36:37.416Z,0.00
2019-03-03T03:37:37.842Z,0.00
2019-03-03T03:38:37.386Z,0.00
2019-03-03T03:39:37.380Z,0.00
2019-03-03T03:40:37.365Z,0.00
2019-03-03T03:41:37.374Z,0.00
2019-03-03T03:42:37.342Z,0.00
2019-03-03T03:43:37.342Z,0.00
2019-03-03T03:44:37.320Z,0.00
2019-03-03T03:45:37.311Z,0.00
2019-03-03T03:46:37.307Z,0.00
2019-03-03T03:47:37.342Z,0.00
2019-03-03T03:48:37.283Z,0.00
2019-03-03T03:49:37.268Z,0.00
2019-03-03T03:50:37.256Z,0.00
2019-03-03T03:51:37.251Z,0.00
2019-03-03T03:52:37.237Z,0.00
2019-03-03T03:53:37.251Z,0.00
2019-03-03T03:54:37.215Z,0.00
2019-03-03T03:55:37.204Z,0.00
2019-03-03T03:56:37.197Z,0.00
2019-03-03T03:57:37.186Z,0.00
2019-03-03T03:58:37.177Z,0.00
2019-03-03T03:59:37.195Z,0.00
2019-03-03T04:00:37.177Z,0.00
2019-03-03T04:01:37.142Z,0.00
2019-03-03T04:02:37.134Z,0.00
2019-03-03T04:03:37.123Z,0.00
2019-03-03T04:04:37.140Z,0.00
2019-03-03T04:05:37.141Z,0.00
2019-03-03T04:06:37.091Z,0.00
2019-03-03T04:07:37.079Z,0.00
2019-03-03T04:08:37.071Z,0.00
2019-03-03T04:09:37.065Z,0.00
2019-03-03T04:10:37.049Z,0.00
2019-03-03T04:11:37.131Z,0.00
2019-03-03T04:12:37.027Z,0.00
2019-03-03T04:13:37.019Z,0.00
2019-03-03T04:14:37.031Z,0.00
2019-03-03T04:15:36.994Z,0.00
2019-03-03T04:16:36.991Z,0.00
2019-03-03T04:17:36.992Z,0.00
2019-03-03T04:18:36.976Z,0.00
2019-03-03T04:19:36.953Z,0.00
2019-03-03T04:20:36.956Z,0.00
2019-03-03T04:21:36.934Z,0.00
2019-03-03T04:22:36.923Z,0.00
2019-03-03T04:23:36.949Z,0.00
2019-03-03T04:24:36.907Z,0.00
2019-03-03T04:25:36.891Z,0.00
2019-03-03T04:26:36.881Z,0.00
2019-03-03T04:27:36.872Z,0.00
2019-03-03T04:28:36.871Z,0.00
2019-03-03T04:29:36.878Z,0.00
2019-03-03T04:30:36.839Z,0.00
2019-03-03T04:31:36.833Z,0.00
2019-03-03T04:32:36.817Z,0.00
2019-03-03T04:33:36.810Z,0.00
2019-03-03T04:34:36.802Z,0.00
2019-03-03T04:35:36.827Z,0.00
2019-03-03T04:36:36.778Z,0.00
2019-03-03T04:37:36.766Z,0.00
2019-03-03T04:38:36.754Z,0.00
2019-03-03T04:39:36.741Z,0.00
2019-03-03T04:40:36.736Z,0.00
2019-03-03T04:41:36.741Z,0.00
2019-03-03T04:42:36.713Z,0.00
2019-03-03T04:43:36.700Z,0.00
2019-03-03T04:44:36.690Z,0.00
2019-03-03T04:45:36.677Z,0.00
2019-03-03T04:46:36.675Z,0.00
2019-03-03T04:47:36.680Z,0.00
2019-03-03T04:48:36.653Z,0.00
2019-03-03T04:49:36.639Z,0.00
2019-03-03T04:50:36.629Z,0.00
2019-03-03T04:51:36.616Z,0.00
2019-03-03T04:52:36.609Z,0.00
2019-03-03T04:53:36.682Z,0.00
2019-03-03T04:54:36.588Z,0.00
2019-03-03T04:55:36.575Z,0.00
2019-03-03T04:56:36.565Z,0.00
2019-03-03T04:57:36.555Z,0.00
2019-03-03T04:58:36.542Z,0.00
2019-03-03T04:59:36.549Z,0.00
2019-03-03T05:00:36.526Z,0.00
2019-03-03T05:01:36.507Z,0.00
2019-03-03T05:02:36.503Z,0.00
2019-03-03T05:03:36.491Z,0.00
2019-03-03T05:04:36.475Z,0.00
2019-03-03T05:05:36.482Z,0.00
2019-03-03T05:06:36.458Z,0.00
2019-03-03T05:07:36.446Z,0.00
2019-03-03T05:08:36.437Z,0.00
2019-03-03T05:09:36.426Z,0.00
2019-03-03T05:10:36.414Z,0.00
2019-03-03T05:11:36.420Z,0.00
2019-03-03T05:12:36.395Z,0.00
2019-03-03T05:13:36.388Z,0.00
2019-03-03T05:14:36.376Z,0.00
2019-03-03T05:15:36.366Z,0.00
2019-03-03T05:16:36.352Z,0.00
2019-03-03T05:17:36.378Z,0.00
2019-03-03T05:18:36.330Z,0.00
2019-03-03T05:19:36.320Z,0.00
2019-03-03T05:20:36.307Z,0.00
2019-03-03T05:21:36.298Z,0.00
2019-03-03T05:22:36.294Z,0.00
2019-03-03T05:23:36.291Z,0.00
2019-03-03T05:24:36.269Z,0.00
2019-03-03T05:25:36.263Z,0.00
2019-03-03T05:26:36.243Z,0.00
2019-03-03T05:27:36.237Z,0.00
2019-03-03T05:28:36.225Z,0.00
2019-03-03T05:29:36.243Z,0.00
2019-03-03T05:30:36.201Z,0.00
2019-03-03T05:31:36.193Z,0.00
2019-03-03T05:32:36.180Z,0.00
2019-03-03T05:33:36.170Z,0.00
2019-03-03T05:34:36.160Z,0.00
2019-03-03T05:35:36.166Z,0.00
2019-03-03T05:36:36.143Z,0.00
2019-03-03T05:37:36.128Z,0.00
2019-03-03T05:38:36.118Z,0.00
2019-03-03T05:39:36.108Z,0.00
2019-03-03T05:40:36.095Z,0.00
2019-03-03T05:41:36.099Z,0.00
2019-03-03T05:42:36.079Z,0.00
2019-03-03T05:43:36.064Z,0.00
2019-03-03T05:44:36.057Z,0.00
2019-03-03T05:45:36.045Z,0.00
2019-03-03T05:46:36.034Z,0.00
2019-03-03T05:47:36.039Z,0.00
2019-03-03T05:48:36.013Z,0.00
2019-03-03T05:49:36.003Z,0.00
2019-03-03T05:50:35.990Z,0.00
2019-03-03T05:51:35.983Z,0.00
2019-03-03T05:52:35.970Z,0.00
2019-03-03T05:53:35.973Z,0.00
2019-03-03T05:54:35.945Z,5.62
2019-03-03T05:55:35.938Z,5.62
2019-03-03T05:56:35.926Z,5.62
2019-03-03T05:57:35.916Z,5.62
2019-03-03T05:58:35.910Z,5.62
2019-03-03T05:59:35.906Z,5.62
2019-03-03T06:00:35.884Z,5.62
2019-03-03T06:01:35.874Z,11.25
2019-03-03T06:02:35.865Z,11.25
2019-03-03T06:03:35.853Z,11.25
2019-03-03T06:04:35.842Z,11.25
2019-03-03T06:05:35.870Z,16.88
2019-03-03T06:06:35.824Z,16.88
2019-03-03T06:07:35.811Z,22.50
2019-03-03T06:08:35.800Z,22.50
2019-03-03T06:09:35.791Z,28.12
2019-03-03T06:10:35.784Z,28.12
2019-03-03T06:11:35.788Z,33.75
2019-03-03T06:12:35.761Z,33.75
2019-03-03T06:13:35.747Z,39.38
2019-03-03T06:14:35.735Z,45.00
2019-03-03T06:15:35.729Z,45.00
2019-03-03T06:16:35.715Z,50.62
2019-03-03T06:17:35.720Z,50.62
2019-03-03T06:18:35.693Z,56.25
2019-03-03T06:19:35.684Z,61.88
2019-03-03T06:20:35.674Z,61.88
2019-03-03T06:21:35.661Z,67.50
2019-03-03T06:22:35.652Z,67.50
2019-03-03T06:23:35.658Z,73.12
2019-03-03T06:24:35.639Z,78.75
2019-03-03T06:25:35.620Z,84.38
2019-03-03T06:26:35.615Z,90.00
2019-03-03T06:27:35.600Z,95.62
2019-03-03T06:28:35.591Z,101.25
2019-03-03T06:29:35.595Z,106.88
2019-03-03T06:30:35.568Z,112.50
2019-03-03T06:31:35.556Z,118.12
2019-03-03T06:32:35.547Z,123.75
2019-03-03T06:33:35.543Z,135.00
2019-03-03T06:34:35.524Z,140.62
2019-03-03T06:35:35.534Z,151.88
2019-03-03T06:36:35.509Z,163.12
2019-03-03T06:37:35.489Z,168.75
2019-03-03T06:38:35.487Z,180.00
2019-03-03T06:39:35.479Z,185.62
2019-03-03T06:40:35.466Z,185.62
2019-03-03T06:41:35.469Z,191.25
2019-03-03T06:42:35.444Z,196.88
2019-03-03T06:43:35.431Z,196.88
2019-03-03T06:44:35.429Z,202.50
2019-03-03T06:45:35.409Z,202.50
2019-03-03T06:46:35.399Z,208.12
2019-03-03T06:47:35.420Z,219.38
2019-03-03T06:48:35.374Z,225.00
2019-03-03T06:49:35.358Z,236.25
2019-03-03T06:50:35.355Z,303.75
2019-03-03T06:51:35.349Z,421.88
2019-03-03T06:52:35.332Z,438.75
2019-03-03T06:53:35.342Z,376.88
2019-03-03T06:54:35.313Z,331.88
2019-03-03T06:55:35.300Z,303.75
2019-03-03T06:56:35.291Z,303.75
2019-03-03T06:57:35.281Z,298.12
2019-03-03T06:58:35.271Z,303.75
2019-03-03T06:59:35.276Z,303.75
2019-03-03T07:00:35.248Z,303.75
2019-03-03T07:01:35.242Z,303.75
2019-03-03T07:02:35.226Z,315.00
2019-03-03T07:03:35.214Z,331.88
2019-03-03T07:04:35.208Z,331.88
2019-03-03T07:05:35.214Z,326.25
2019-03-03T07:06:35.188Z,337.50
2019-03-03T07:07:35.178Z,348.75
2019-03-03T07:08:35.451Z,343.12
2019-03-03T07:09:35.157Z,326.25
2019-03-03T07:10:35.147Z,303.75
2019-03-03T07:11:35.150Z,286.88
2019-03-03T07:12:35.131Z,270.00
2019-03-03T07:13:35.115Z,270.00
2019-03-03T07:14:35.116Z,270.00
2019-03-03T07:15:35.094Z,270.00
2019-03-03T07:16:35.080Z,270.00
2019-03-03T07:17:35.089Z,275.62
2019-03-03T07:18:35.057Z,281.25
2019-03-03T07:19:35.048Z,292.50
2019-03-03T07:20:35.044Z,315.00
2019-03-03T07:21:35.022Z,360.00
2019-03-03T07:22:35.012Z,427.50
2019-03-03T07:23:35.019Z,444.38
2019-03-03T07:24:34.994Z,466.88
2019-03-03T07:25:34.977Z,466.88
2019-03-03T07:26:34.971Z,466.88
2019-03-03T07:27:34.969Z,472.50
2019-03-03T07:28:34.958Z,438.75
2019-03-03T07:29:34.952Z,500.62
2019-03-03T07:30:34.929Z,483.75
2019-03-03T07:31:34.915Z,528.75
2019-03-03T07:32:34.904Z,573.75
2019-03-03T07:33:34.898Z,590.62
2019-03-03T07:34:34.889Z,613.12
2019-03-03T07:35:34.886Z,601.88
2019-03-03T07:36:34.864Z,607.50
2019-03-03T07:37:34.861Z,669.38
2019-03-03T07:38:34.841Z,708.75
2019-03-03T07:39:34.835Z,736.88
2019-03-03T07:40:34.818Z,753.75
2019-03-03T07:41:34.821Z,725.62
2019-03-03T07:42:34.800Z,753.75
2019-03-03T07:43:34.789Z,787.50
2019-03-03T07:44:34.777Z,821.25
2019-03-03T07:45:34.767Z,832.50
2019-03-03T07:46:34.757Z,815.62
2019-03-03T07:47:34.838Z,832.50
2019-03-03T07:48:34.733Z,838.12
2019-03-03T07:49:34.723Z,798.75
2019-03-03T07:50:34.711Z,646.88
2019-03-03T07:51:34.700Z,731.25
2019-03-03T07:52:34.691Z,855.00
2019-03-03T07:53:34.697Z,838.12
2019-03-03T07:54:34.669Z,950.62
2019-03-03T07:55:34.656Z,973.12
2019-03-03T07:56:34.649Z,1018.12
2019-03-03T07:57:34.636Z,1130.62
2019-03-03T07:58:34.624Z,1192.50
2019-03-03T07:59:34.632Z,1192.50
2019-03-03T08:00:34.605Z,1080.00
2019-03-03T08:01:34.595Z,1006.88
2019-03-03T08:02:34.586Z,928.12
2019-03-03T08:03:34.573Z,894.38
2019-03-03T08:04:34.564Z,855.00
2019-03-03T08:05:34.575Z,894.38
2019-03-03T08:06:34.546Z,866.25
2019-03-03T08:07:34.536Z,838.12
2019-03-03T08:08:34.528Z,826.88
2019-03-03T08:09:34.507Z,821.25
2019-03-03T08:10:34.495Z,832.50
2019-03-03T08:11:34.495Z,804.38
2019-03-03T08:12:34.475Z,810.00
2019-03-03T08:13:34.465Z,838.12
2019-03-03T08:14:34.454Z,945.00
2019-03-03T08:15:34.444Z,1046.25
2019-03-03T08:16:34.433Z,1091.25
2019-03-03T08:17:34.437Z,1119.38
2019-03-03T08:18:34.412Z,1175.62
2019-03-03T08:19:34.399Z,1198.12
2019-03-03T08:20:34.394Z,1231.88
2019-03-03T08:21:34.382Z,1248.75
2019-03-03T08:22:41.421Z,1276.88
2019-03-03T08:23:34.355Z,1299.38
2019-03-03T08:24:34.345Z,1316.25
2019-03-03T08:25:34.344Z,1338.75
2019-03-03T08:26:34.324Z,1366.88
2019-03-03T08:27:34.327Z,1383.75
2019-03-03T08:28:34.326Z,1434.38
2019-03-03T08:29:34.294Z,1456.88
2019-03-03T08:30:34.295Z,1462.50
2019-03-03T08:31:34.275Z,1428.75
2019-03-03T08:32:34.262Z,1350.00
2019-03-03T08:33:34.299Z,1321.88
2019-03-03T08:34:34.268Z,1400.62
2019-03-03T08:35:34.248Z,1434.38
2019-03-03T08:36:34.236Z,1507.50
2019-03-03T08:37:34.217Z,1530.00
2019-03-03T08:38:34.208Z,1513.12
2019-03-03T08:39:34.208Z,1563.75
2019-03-03T08:40:34.284Z,1524.38
2019-03-03T08:41:34.170Z,1513.12
2019-03-03T08:42:34.171Z,1518.75
2019-03-03T08:43:34.155Z,1546.88
2019-03-03T08:44:34.133Z,1546.88
2019-03-03T08:45:34.155Z,1591.88
2019-03-03T08:46:34.122Z,1558.12
2019-03-03T08:47:34.117Z,1580.62
2019-03-03T08:48:34.088Z,1552.50
2019-03-03T08:49:34.075Z,1490.62
2019-03-03T08:50:34.063Z,1518.75
2019-03-03T08:51:34.054Z,1648.12
2019-03-03T08:52:34.066Z,1710.00
2019-03-03T08:53:34.035Z,1687.50
2019-03-03T08:54:34.056Z,1681.88
2019-03-03T08:55:34.013Z,1569.38
2019-03-03T08:56:34.008Z,1591.88
2019-03-03T08:57:33.993Z,1704.38
2019-03-03T08:58:34.009Z,1861.88
2019-03-03T08:59:33.987Z,1940.62
2019-03-03T09:00:33.963Z,1895.62
2019-03-03T09:01:33.950Z,1816.88
2019-03-03T09:02:33.931Z,1822.50
2019-03-03T09:03:33.930Z,1771.88
2019-03-03T09:04:33.941Z,1732.50
2019-03-03T09:05:33.906Z,1743.75
2019-03-03T09:06:33.902Z,1991.25
2019-03-03T09:07:33.883Z,2030.62
2019-03-03T09:08:33.886Z,2013.75
2019-03-03T09:09:34.107Z,2019.38
2019-03-03T09:10:34.846Z,2008.12
2019-03-03T09:11:34.329Z,2137.50
2019-03-03T09:12:34.329Z,2120.62
2019-03-03T09:13:34.310Z,2019.38
2019-03-03T09:14:34.298Z,2103.75
2019-03-03T09:15:34.284Z,2216.25
2019-03-03T09:16:34.814Z,2233.12
2019-03-03T09:17:34.268Z,2295.00
2019-03-03T09:18:34.265Z,2255.62
2019-03-03T09:19:34.246Z,2272.50
2019-03-03T09:20:34.239Z,2289.38
2019-03-03T09:21:34.230Z,2323.12
2019-03-03T09:22:34.725Z,2323.12
2019-03-03T09:23:34.203Z,2266.88
2019-03-03T09:24:34.195Z,2193.75
2019-03-03T09:25:33.688Z,2250.00
2019-03-03T09:26:33.680Z,2289.38
2019-03-03T09:27:33.668Z,2176.88
2019-03-03T09:28:33.674Z,2131.88
2019-03-03T09:29:33.655Z,2075.62
2019-03-03T09:30:33.658Z,2137.50
2019-03-03T09:31:33.626Z,2070.00
2019-03-03T09:32:33.744Z,2176.88
2019-03-03T09:33:33.610Z,2210.62
2019-03-03T09:34:33.610Z,2103.75
2019-03-03T09:35:33.812Z,2272.50
2019-03-03T09:36:33.603Z,2373.75
2019-03-03T09:37:33.565Z,2435.62
2019-03-03T09:38:33.549Z,2520.00
2019-03-03T09:39:33.539Z,2531.25
2019-03-03T09:40:33.639Z,2407.50
2019-03-03T09:41:33.524Z,2368.12
2019-03-03T09:42:33.505Z,2368.12
2019-03-03T09:43:33.494Z,2430.00
2019-03-03T09:44:33.485Z,2418.75
2019-03-03T09:45:33.469Z,2328.75
2019-03-03T09:46:33.524Z,2469.38
2019-03-03T09:47:33.453Z,2418.75
2019-03-03T09:48:33.443Z,2514.38
2019-03-03T09:49:33.446Z,2508.75
2019-03-03T09:50:33.430Z,2503.12
2019-03-03T09:51:33.411Z,2323.12
2019-03-03T09:52:33.418Z,2407.50
2019-03-03T09:53:33.389Z,2036.25
2019-03-03T09:54:33.380Z,2407.50
2019-03-03T09:55:33.370Z,2570.62
2019-03-03T09:56:33.413Z,2722.50
2019-03-03T09:57:33.352Z,2761.88
2019-03-03T09:58:33.356Z,2773.12
2019-03-03T09:59:33.349Z,2694.38
2019-03-03T10:00:33.360Z,2705.62
2019-03-03T10:01:33.307Z,2683.12
2019-03-03T10:02:33.310Z,2761.88
2019-03-03T10:03:33.285Z,2711.25
2019-03-03T10:04:33.363Z,2745.00
2019-03-03T10:05:33.259Z,2649.38
2019-03-03T10:06:33.247Z,2553.75
2019-03-03T10:07:33.243Z,2536.88
2019-03-03T10:08:33.243Z,2542.50
2019-03-03T10:09:33.224Z,1873.12
2019-03-03T10:10:33.222Z,2649.38
2019-03-03T10:11:33.199Z,2671.88
2019-03-03T10:12:33.226Z,2761.88
2019-03-03T10:13:33.169Z,2728.12
2019-03-03T10:14:33.160Z,2790.00
2019-03-03T10:15:33.154Z,2705.62
2019-03-03T10:16:33.158Z,2756.25
2019-03-03T10:17:33.129Z,2514.38
2019-03-03T10:18:33.122Z,2171.25
2019-03-03T10:19:33.133Z,2750.62
2019-03-03T10:20:33.096Z,2829.38
2019-03-03T10:21:33.086Z,2784.38
2019-03-03T10:22:33.106Z,2761.88
2019-03-03T10:23:33.065Z,2835.00
2019-03-03T10:24:33.055Z,2930.62
2019-03-03T10:25:33.045Z,3082.50
2019-03-03T10:26:35.008Z,3144.38
2019-03-03T10:27:33.023Z,3211.88
2019-03-03T10:28:33.026Z,3031.88
2019-03-03T10:29:33.005Z,3144.38
2019-03-03T10:30:32.994Z,2508.75
2019-03-03T10:31:32.985Z,3009.38
2019-03-03T10:32:32.982Z,1085.62
2019-03-03T10:33:32.958Z,911.25
2019-03-03T10:34:33.046Z,2992.50
2019-03-03T10:35:33.032Z,3375.00
2019-03-03T10:36:32.927Z,3290.62
2019-03-03T10:37:32.953Z,1181.25
2019-03-03T10:38:36.015Z,3211.88
2019-03-03T10:39:32.895Z,1704.38
2019-03-03T10:40:32.899Z,1051.88
2019-03-03T10:41:32.873Z,1434.38
2019-03-03T10:42:32.866Z,2131.88
2019-03-03T10:43:32.853Z,2587.50
2019-03-03T10:44:32.889Z,2863.12
2019-03-03T10:45:32.831Z,2458.12
2019-03-03T10:46:32.921Z,2874.38
2019-03-03T10:47:32.808Z,2958.75
2019-03-03T10:48:32.799Z,2716.88
2019-03-03T10:49:32.787Z,2784.38
2019-03-03T10:50:32.777Z,2784.38
2019-03-03T10:51:32.847Z,2581.88
2019-03-03T10:52:32.767Z,3043.12
2019-03-03T10:53:32.745Z,3076.88
2019-03-03T10:54:32.735Z,3223.12
2019-03-03T10:55:32.725Z,3223.12
2019-03-03T10:56:32.710Z,2936.25
2019-03-03T10:57:32.704Z,3071.25
2019-03-03T10:58:32.707Z,3009.38
2019-03-03T10:59:32.784Z,3245.62
2019-03-03T11:00:32.671Z,3262.50
2019-03-03T11:01:32.665Z,3138.75
2019-03-03T11:02:32.991Z,2958.75
2019-03-03T11:03:32.639Z,2688.75
2019-03-03T11:04:32.648Z,2581.88
2019-03-03T11:05:32.619Z,2565.00
2019-03-03T11:06:32.607Z,2761.88
2019-03-03T11:07:32.606Z,2722.50
2019-03-03T11:08:32.601Z,2553.75
2019-03-03T11:09:32.575Z,2295.00
2019-03-03T11:10:32.582Z,1861.88
2019-03-03T11:11:32.554Z,2266.88
2019-03-03T11:12:32.541Z,2649.38
2019-03-03T11:13:32.531Z,3026.25
2019-03-03T11:14:32.525Z,2925.00
2019-03-03T11:15:32.512Z,2846.25
2019-03-03T11:16:32.515Z,2565.00
2019-03-03T11:17:32.487Z,2666.25
2019-03-03T11:18:32.486Z,2970.00
2019-03-03T11:19:32.467Z,2835.00
2019-03-03T11:20:32.462Z,2272.50
2019-03-03T11:21:32.451Z,2621.25
2019-03-03T11:22:32.454Z,2885.62
2019-03-03T11:23:32.436Z,2390.62
2019-03-03T11:24:32.413Z,1923.75
2019-03-03T11:25:32.404Z,1777.50
2019-03-03T11:26:32.394Z,1777.50
2019-03-03T11:27:32.381Z,1850.62
2019-03-03T11:28:32.384Z,1698.75
2019-03-03T11:29:32.362Z,1468.12
2019-03-03T11:30:32.350Z,1434.38
2019-03-03T11:31:32.342Z,1614.38
2019-03-03T11:32:32.332Z,1648.12
2019-03-03T11:33:32.324Z,1676.25
2019-03-03T11:34:32.326Z,1608.75
2019-03-03T11:35:32.295Z,1659.38
2019-03-03T11:36:32.302Z,2559.38
2019-03-03T11:37:32.281Z,3138.75
2019-03-03T11:38:32.299Z,2823.75
2019-03-03T11:39:32.278Z,2390.62
2019-03-03T11:40:32.262Z,2216.25
2019-03-03T11:41:32.245Z,1906.88
2019-03-03T11:42:32.222Z,1794.38
2019-03-03T11:43:32.209Z,2435.62
2019-03-03T11:44:32.199Z,1625.62
2019-03-03T11:45:32.189Z,1575.00
2019-03-03T11:46:32.193Z,1771.88
2019-03-03T11:47:32.170Z,1490.62
2019-03-03T11:48:32.162Z,1473.75
2019-03-03T11:49:32.147Z,1366.88
2019-03-03T11:50:32.157Z,1333.12
2019-03-03T11:51:32.124Z,1316.25
2019-03-03T11:52:32.132Z,2148.75
2019-03-03T11:53:32.111Z,1440.00
2019-03-03T11:54:32.098Z,1732.50
2019-03-03T11:55:32.083Z,1310.62
2019-03-03T11:56:32.077Z,1198.12
2019-03-03T11:57:32.067Z,1175.62
2019-03-03T11:58:32.164Z,1158.75
2019-03-03T11:59:32.060Z,1923.75
2019-03-03T12:00:32.032Z,2475.00
2019-03-03T12:01:32.019Z,2660.62
2019-03-03T12:02:32.683Z,3234.38
2019-03-03T12:03:31.997Z,2553.75
2019-03-03T12:04:32.004Z,1800.00
2019-03-03T12:05:31.974Z,2542.50
2019-03-03T12:06:31.965Z,2030.62
2019-03-03T12:07:31.953Z,1805.62
2019-03-03T12:08:31.945Z,2368.12
2019-03-03T12:09:31.935Z,2182.50
2019-03-03T12:10:31.938Z,2418.75
2019-03-03T12:11:31.912Z,1456.88
2019-03-03T12:12:31.902Z,1271.25
2019-03-03T12:13:31.892Z,1164.38
2019-03-03T12:14:31.879Z,1198.12
2019-03-03T12:15:31.870Z,1198.12
2019-03-03T12:16:31.880Z,1170.00
2019-03-03T12:17:31.850Z,1170.00
2019-03-03T12:18:31.847Z,1170.00
2019-03-03T12:19:31.828Z,1198.12
2019-03-03T12:20:31.817Z,1276.88
2019-03-03T12:21:31.803Z,1428.75
2019-03-03T12:22:31.917Z,1350.00
2019-03-03T12:23:31.787Z,1395.00
2019-03-03T12:24:31.780Z,1355.62
2019-03-03T12:25:31.762Z,1383.75
2019-03-03T12:26:31.751Z,1310.62
2019-03-03T12:27:31.741Z,1282.50
2019-03-03T12:28:31.748Z,1265.62
2019-03-03T12:29:31.719Z,1248.75
2019-03-03T12:30:31.706Z,1248.75
2019-03-03T12:31:32.608Z,1248.75
2019-03-03T12:32:31.688Z,1237.50
2019-03-03T12:33:31.677Z,1243.12
2019-03-03T12:34:31.693Z,1248.75
2019-03-03T12:35:31.654Z,1260.00
2019-03-03T12:36:31.645Z,1265.62
2019-03-03T12:37:31.648Z,1265.62
2019-03-03T12:38:31.626Z,1276.88
2019-03-03T12:39:31.609Z,1282.50
2019-03-03T12:40:31.671Z,1271.25
2019-03-03T12:41:31.607Z,1265.62
2019-03-03T12:42:31.583Z,1226.25
2019-03-03T12:43:31.575Z,1198.12
2019-03-03T12:44:31.562Z,1170.00